• Join FlightAware (Why Join?)
  • Login
  • US Flag 
10:13AM EDT


 

Airport Tracker/Info


-or-


 

Live Flight TrackerFlight Track Log ✈ N525H ✈ 12-Aug-2013 ✈ KJAC - KLCK

Flight Track Log - Related Links

Times and Time Zones

All times are in EDT time to prevent confusion due to time zone crossing. See the N525H flight status page for this flight to view local times or setup timezone preferences in your user account.

Time Position Orientation Groundspeed Altitude Reporting Facility
EDT Latitude Longitude Course Direction KTS MPH feet Rate Location/Type
09:14AM 43.5722 -110.7558 133° Southeast 150 173 7,600  Level Salt Lake Center
09:15AM 43.5231 -110.7881 205° Southwest 192 221 10,200 2,580 Climbing Salt Lake Center
09:16AM 43.4819 -110.8275 215° Southwest 189 217 12,900 2,160 Climbing Salt Lake Center
09:17AM 43.4367 -110.8158 169° South 215 247 14,600 1,620 Climbing Salt Lake Center
09:18AM 43.4364 -110.7142 90° East 271 312 16,200 1,500 Climbing Salt Lake Center
09:19AM 43.0575 -110.7736 133° Southeast  Level FlightAware Approximate
09:19AM 43.4375 -110.6075 89° East 281 323 17,700  Level Salt Lake Center
09:20AM 43.4408 -110.4886 88° East 290 334 20,100 1,980 Climbing Salt Lake Center
09:21AM 43.4422 -110.3797 89° East 297 342 21,700 1,740 Climbing Salt Lake Center
09:22AM 43.4444 -110.2497 89° East 303 349 23,700 1,680 Climbing Salt Lake Center
09:23AM 43.4461 -110.1358 89° East 308 354 25,200 1,620 Climbing Salt Lake Center
09:24AM 43.4475 -110.0028 89° East 310 357 27,000 1,500 Climbing Salt Lake Center
09:25AM 43.4494 -109.8850 89° East 320 368 28,300 1,320 Climbing Salt Lake Center
09:26AM 43.4494 -109.7586 90° East 313 360 29,700 1,320 Climbing Salt Lake Center
09:27AM 43.4503 -109.6314 89° East 328 377 31,100 1,260 Climbing Salt Lake Center
09:28AM 43.4508 -109.5047 90° East 333 383 32,300 1,140 Climbing Salt Lake Center
09:29AM 43.4522 -109.3781 89° East 334 384 33,500 1,260 Climbing Salt Lake Center
09:31AM 43.4531 -109.2536 89° East 329 379 34,900 1,200 Climbing Salt Lake Center
09:32AM 43.4533 -109.1292 90° East 327 376 36,000 480 Climbing Salt Lake Center
09:33AM 43.4542 -108.9983 89° East 341 392 36,000  Level Salt Lake Center
09:34AM 43.4539 -108.8581 90° East 365 420 36,000 660 Level Salt Lake Center
09:35AM 43.4544 -108.7150 90° East 374 430 37,400 1,320 Climbing Salt Lake Center
09:36AM 43.4547 -108.5861 90° East 343 395 38,700 1,080 Climbing Salt Lake Center
09:37AM 43.4553 -108.4311 90° East 339 390 39,600 720 Climbing Salt Lake Center
09:38AM 43.4539 -108.3011 91° East 341 392 40,200 480 Climbing Salt Lake Center
09:39AM 43.4542 -108.1703 90° East 344 396 40,700 360 Climbing Salt Lake Center
09:40AM 43.4525 -108.0369 91° East 349 402 41,000 120 Climbing Salt Lake Center
09:41AM 43.4511 -107.8994 91° East 358 412 41,000  Level Salt Lake Center
09:42AM 43.4497 -107.7519 91° East 381 438 41,000  Level Salt Lake Center
09:43AM 43.4489 -107.6031 90° East 390 449 41,000  Level Salt Lake Center
09:44AM 43.4478 -107.4478 91° East 406 467 41,000  Level Salt Lake Center
09:45AM 43.4456 -107.2906 91° East 411 473 41,000  Level Salt Lake Center
09:46AM 43.4436 -107.0983 91° East 421 484 41,000  Level Salt Lake Center
09:47AM 43.4406 -106.9358 91° East 425 489 41,000  Level Salt Lake Center
09:48AM 43.4383 -106.7631 91° East 429 494 41,000  Level Salt Lake Center
09:49AM 43.4364 -106.6050 91° East 432 497 41,000  Level Salt Lake Center
09:49AM 43.4350 -106.5261 91° East 430 495 41,000  Level Denver Center
09:50AM 43.4322 -106.3661 91° East 434 499 41,000  Level Denver Center
09:51AM 43.4283 -106.1817 92° East 432 497 41,000  Level Denver Center
09:52AM 43.4250 -106.0228 92° East 434 499 41,000  Level Denver Center
09:53AM 43.4200 -105.8350 92° East 439 505 41,000  Level Denver Center
09:54AM 43.4167 -105.6739 92° East 440 506 41,000  Level Denver Center
09:56AM 43.4122 -105.5144 92° East 438 504 41,000  Level Denver Center
09:57AM 43.4075 -105.3233 92° East 444 511 41,000  Level Denver Center
09:58AM 43.4025 -105.1617 92° East 443 510 41,000  Level Denver Center
09:59AM 43.3964 -104.9742 93° East 441 507 41,000  Level Denver Center
10:00AM 43.3906 -104.8131 93° East 440 506 41,000  Level Denver Center
10:01AM 43.3861 -104.6775 93° East 441 507 41,000  Level Denver Center
10:02AM 43.3797 -104.4969 93° East 443 510 41,000  Level Denver Center
10:03AM 43.3733 -104.3256 93° East 443 510 41,000  Level Denver Center
10:04AM 43.3642 -104.1100 93° East 442 509 41,000  Level Denver Center
10:05AM 43.3575 -103.9489 93° East 442 509 41,000  Level Denver Center
10:06AM 43.3514 -103.7894 93° East 439 505 41,000  Level Denver Center
10:07AM 43.3431 -103.5994 93° East 442 509 41,000  Level Denver Center
10:08AM 43.3342 -103.4403 94° East 439 505 41,000  Level Denver Center
10:09AM 43.3264 -103.2533 93° East 440 506 41,000  Level Denver Center
10:10AM 43.3175 -103.0939 94° East 438 504 41,000  Level Denver Center
10:11AM 43.3103 -102.9333 93° East 441 507 41,000  Level Denver Center
10:12AM 43.3003 -102.7456 94° East 443 510 41,000  Level Denver Center
10:13AM 43.2917 -102.5856 94° East 441 507 41,000  Level Denver Center
10:14AM 43.2814 -102.3975 94° East 443 510 41,000  Level Denver Center
10:15AM 43.2728 -102.2367 94° East 442 509 41,000  Level Denver Center
10:16AM 43.2617 -102.0486 95° East 444 511 41,000  Level Denver Center
10:17AM 43.2528 -101.8861 94° East 445 512 41,000  Level Denver Center
10:18AM 43.2425 -101.7206 95° East 442 509 41,000  Level Denver Center
10:19AM 43.2308 -101.5506 95° East 448 516 41,000  Level Denver Center
10:20AM 43.2192 -101.3508 95° East 443 510 41,000  Level Denver Center
10:21AM 43.2072 -101.1828 96° East 444 511 41,000  Level Denver Center
10:22AM 43.1967 -101.0150 95° East 443 510 41,000  Level Denver Center
10:23AM 43.1856 -100.8483 95° East 442 509 41,000  Level Denver Center
10:24AM 43.1733 -100.6819 96° East 441 507 41,000  Level Denver Center
10:25AM 43.1619 -100.5164 95° East 440 506 41,000  Level Denver Center
10:26AM 43.1478 -100.3147 95° East 442 509 41,000  Level Denver Center
10:27AM 43.1356 -100.1442 96° East 448 516 41,000  Level Denver Center
10:28AM 43.1225 -99.9758 96° East 448 516 41,000  Level Denver Center
10:30AM 43.1092 -99.8050 96° East 451 519 41,000  Level Denver Center
10:31AM 43.0953 -99.6364 96° East 448 516 41,000  Level Denver Center
10:32AM 43.0819 -99.4650 96° East 450 518 41,000  Level Denver Center
10:33AM 43.0656 -99.2631 96° East 451 519 41,000  Level Minneapolis Center
10:34AM 43.0517 -99.0906 96° East 454 522 41,000  Level Minneapolis Center
10:35AM 43.0353 -98.9106 97° East 455 524 41,000  Level Minneapolis Center
10:36AM 43.0203 -98.7381 97° East 459 528 41,000  Level Minneapolis Center
10:37AM 43.0058 -98.5689 97° East 454 522 41,000  Level Minneapolis Center
10:38AM 42.9875 -98.3628 97° East 456 525 41,000  Level Minneapolis Center
10:39AM 42.9722 -98.1911 97° East 457 526 41,000  Level Minneapolis Center
10:40AM 42.9561 -98.0208 97° East 455 524 41,000  Level Minneapolis Center
10:41AM 42.9389 -97.8492 98° East 457 526 41,000  Level Minneapolis Center
10:42AM 42.9233 -97.6794 97° East 454 522 41,000  Level Minneapolis Center
10:43AM 42.9022 -97.4739 98° East 456 525 41,000  Level Minneapolis Center
10:44AM 42.8825 -97.2689 97° East 457 526 41,000  Level Minneapolis Center
10:45AM 42.8681 -97.1311 98° East 459 528 41,000  Level Minneapolis Center
10:46AM 42.8458 -96.9253 98° East 460 529 41,000  Level Minneapolis Center
10:47AM 42.8289 -96.7558 98° East 457 526 41,000  Level Minneapolis Center
10:48AM 42.8114 -96.5850 98° East 457 526 41,000  Level Minneapolis Center
10:49AM 42.7883 -96.3811 99° East 458 527 41,000  Level Minneapolis Center
10:50AM 42.7697 -96.2108 98° East 458 527 41,000  Level Minneapolis Center
10:52AM 42.7514 -96.0389 98° East 461 531 41,000  Level Minneapolis Center
10:53AM 42.7314 -95.8711 99° East 456 525 41,000  Level Minneapolis Center
10:54AM 42.7111 -95.6903 99° East 459 528 41,000  Level Minneapolis Center
10:55AM 42.6906 -95.5153 99° East 465 535 41,000  Level Minneapolis Center
10:56AM 42.6708 -95.3450 99° East 459 528 41,000  Level Minneapolis Center
10:57AM 42.6508 -95.1731 99° East 459 528 41,000  Level Minneapolis Center
10:58AM 42.6253 -94.9672 100° East 461 531 41,000  Level Minneapolis Center
10:59AM 42.6047 -94.7964 99° East 460 529 41,000  Level Minneapolis Center
11:00AM 42.5836 -94.6247 99° East 460 529 41,000  Level Minneapolis Center
11:01AM 42.5611 -94.4517 100° East 466 536 41,000  Level Minneapolis Center
11:02AM 42.5386 -94.2808 100° East 466 536 41,000  Level Minneapolis Center
11:03AM 42.5172 -94.1103 100° East 464 534 41,000  Level Minneapolis Center
11:04AM 42.4850 -93.8714 100° East 466 536 41,000  Level Minneapolis Center
11:05AM 42.4625 -93.6992 100° East 468 539 41,000  Level Minneapolis Center
11:06AM 42.4394 -93.5272 100° East 468 539 41,000  Level Minneapolis Center
11:07AM 42.4161 -93.3553 100° East 470 541 41,000  Level Minneapolis Center
11:08AM 42.3881 -93.1489 100° East 470 541 41,000  Level Minneapolis Center
11:09AM 42.3775 -93.0786 101° East 472 543 41,000  Level Chicago Center
11:09AM 42.3636 -92.9778 101° East 469 540 41,000  Level Minneapolis Center
11:10AM 42.3397 -92.8078 101° East 467 537 41,000  Level Minneapolis Center
11:11AM 42.3156 -92.6367 101° East 468 539 41,000  Level Minneapolis Center
11:12AM 42.3003 -92.5325 101° East 470 541 41,000  Level Chicago Center
11:13AM 42.2756 -92.3611 101° East 471 542 41,000  Level Chicago Center
11:14AM 42.2497 -92.1894 101° East 472 543 41,000  Level Chicago Center
11:15AM 42.2244 -92.0183 101° East 473 544 41,000  Level Chicago Center
11:16AM 42.1942 -91.8114 101° East 475 547 41,000  Level Chicago Center
11:17AM 42.1672 -91.6378 102° East 479 551 41,000  Level Chicago Center
11:18AM 42.1406 -91.4633 102° East 482 555 41,000  Level Chicago Center
11:19AM 42.1133 -91.2889 102° East 484 557 41,000  Level Chicago Center
11:20AM 42.0806 -91.0794 102° East 484 557 41,000  Level Chicago Center
11:21AM 42.0525 -90.9042 102° East 486 559 41,000  Level Chicago Center
11:22AM 42.0242 -90.7297 102° East 484 557 41,000  Level Chicago Center
11:23AM 41.9958 -90.5558 102° East 483 556 41,000  Level Chicago Center
11:24AM 41.9672 -90.3828 102° East 480 552 41,000  Level Chicago Center
11:25AM 41.9311 -90.1753 103° East 483 556 41,000  Level Chicago Center
11:26AM 41.9022 -90.0011 103° East 482 555 41,000  Level Chicago Center
11:27AM 41.8728 -89.8192 102° East 483 556 41,000  Level Chicago Center
11:28AM 41.8436 -89.6447 103° East 483 556 41,000  Level Chicago Center
11:29AM 41.8133 -89.4697 103° East 486 559 41,000  Level Chicago Center
11:30AM 41.7825 -89.2944 103° East 486 559 41,000  Level Chicago Center
11:32AM 41.7464 -89.0872 103° East 480 552 41,000  Level Chicago Center
11:33AM 41.7147 -88.9136 104° East 481 554 41,000  Level Chicago Center
11:34AM 41.6836 -88.7383 103° East 486 559 41,000  Level Chicago Center
11:35AM 41.6514 -88.5647 104° East 484 557 41,000  Level Chicago Center
11:36AM 41.6203 -88.3903 103° East 482 555 41,000  Level Chicago Center
11:37AM 41.5883 -88.2161 104° East 483 556 41,000  Level Chicago Center
11:38AM 41.5492 -88.0019 104° East 485 558 41,000 -360 Level Chicago Center
11:39AM 41.5158 -87.8236 104° East 486 559 40,300 -720 Descending Chicago Center
11:40AM 41.4825 -87.6544 105° East 474 545 39,600 -720 Descending Chicago Center
11:41AM 41.4500 -87.4858 104° East 471 542 38,900 -720 Descending Chicago Center
11:42AM 41.4161 -87.3164 105° East 473 544 38,200 -720 Descending Chicago Center
11:43AM 41.3825 -87.1447 105° East 480 552 37,500 -720 Descending Chicago Center
11:44AM 41.3483 -86.9744 105° East 480 552 36,800 -780 Descending Chicago Center
11:45AM 41.3075 -86.7728 105° East 474 545 35,900 -780 Descending Chicago Center
11:46AM 41.2767 -86.6197 105° East 470 541 35,300 -660 Descending Chicago Center
11:47AM 41.2439 -86.4567 105° East 463 533 34,600 -780 Descending Chicago Center
11:48AM 41.2042 -86.2597 105° East 464 534 33,800 -780 Descending Chicago Center
11:49AM 41.1706 -86.0964 105° East 463 533 33,000 -720 Descending Chicago Center
11:50AM 41.1361 -85.9333 106° East 463 533 32,300 -720 Descending Chicago Center
11:51AM 41.0906 -85.7792 111° Southeast 454 522 31,600 -660 Descending Chicago Center
11:52AM 41.0381 -85.6311 115° Southeast 447 514 31,000 -780 Descending Chicago Center
11:53AM 40.9753 -85.4575 116° Southeast 441 507 30,100 -1,080 Descending Chicago Center
11:54AM 40.9219 -85.3133 116° Southeast 439 505 28,800 -1,620 Descending Chicago Center
11:55AM 40.8694 -85.1658 115° Southeast 445 512 26,800 -1,860 Descending Chicago Center
11:56AM 40.8314 -85.0192 109° East 436 502 25,000 -1,560 Descending Chicago Center
11:57AM 40.8472 -84.8706 82° East 415 478 23,600 -1,260 Descending Chicago Center
11:58AM 40.8267 -84.6939 99° East 413 475 22,400 -1,140 Descending Chicago Center
11:59AM 40.7844 -84.5556 112° Southeast 410 472 21,300 -720 Descending Chicago Center
12:00PM 40.7408 -84.4181 113° Southeast 410 472 21,000 -180 Descending Chicago Center
12:02PM 40.6997 -84.2844 112° Southeast 399 459 21,000  Level Chicago Center
12:03PM 40.6489 -84.1594 118° Southeast 393 452 21,000 -120 Level Chicago Center
12:04PM 40.5781 -84.0564 132° Southeast 380 437 20,800 -960 Descending Chicago Center
12:05PM 40.4925 -83.9275 131° Southeast 389 448 19,100 -1,500 Descending Chicago Center
12:06PM 40.4242 -83.8261 132° Southeast 377 434 17,700 -1,320 Descending Chicago Center
12:07PM 40.3578 -83.7267 131° Southeast 367 422 16,400 -1,440 Descending Chicago Center
12:08PM 40.2986 -83.6411 132° Southeast 355 409 15,100 -1,500 Descending Indianapolis Center
12:09PM 40.2128 -83.5111 131° Southeast 343 395 13,200 -1,380 Descending Indianapolis Center
12:10PM 40.1539 -83.4233 131° Southeast 340 391 11,800 -1,380 Descending Indianapolis Center
12:11PM 40.0839 -83.3253 133° Southeast 328 377 10,300 -1,560 Descending Indianapolis Center
12:12PM 40.0306 -83.2481 132° Southeast 310 357 8,900 -1,860 Descending Indianapolis Center
12:13PM 39.9831 -83.1744 130° Southeast 292 336 7,000 -2,040 Descending Indianapolis Center
12:14PM 39.9297 -83.0975 132° Southeast 278 320 5,000 -1,920 Descending Indianapolis Center
12:15PM 39.8814 -83.0297 133° Southeast 254 292 3,100 -1,560 Descending Indianapolis Center
12:16PM 39.8678 -82.9539 103° East 229 264 2,100 -900 Descending Indianapolis Center
12:17PM 39.8411 -82.9006 123° Southeast 110 127 1,300 -660 Descending Indianapolis Center
12:19PM 39.8138 -82.9278 131° Southeast  Level Estimated
12:26PM 39.8138 -82.9278 131° Southeast  Level Estimated